Time;durP1;ratioP1;P1;durP2;ratioP2;P2;SDS_P1;SDS_P2;PMS_P1;PMS_P2;Temp;Humidity;BMP_temperature;BMP_pressure;BME280_temperature;BME280_humidity;BME280_pressure;Samples;Min_cycle;Max_cycle;Signal;HPM_P1;HPM_P2
2021/09/27 00:00:29;;;;;;;;;;;;;;;15.09;87.41;96735.19;5074294;28;19969;-81
2021/09/27 00:02:55;;;;;;;;;;;;;;;15.08;87.37;96736.25;5074630;28;19965;-81
2021/09/27 00:05:22;;;;;;;;;;;;;;;15.07;86.89;96729.34;5074691;28;19954;-81
2021/09/27 00:07:48;;;;;;;;;;;;;;;15.06;86.94;96717.19;5074447;28;19964;-81
2021/09/27 00:10:18;;;;;;;;;;;;;;;15.04;86.89;96722.69;5074561;28;19961;-81
2021/09/27 00:12:44;;;;;;;;;;;;;;;15.03;86.83;96721.09;5074271;28;19972;-81
2021/09/27 00:15:12;;;;;;;;;;;;;;;15.02;87.18;96722.13;5074504;28;19953;-81
2021/09/27 00:17:38;;;;;;;;;;;;;;;15.00;87.12;96727.66;5074658;28;19952;-81
2021/09/27 00:20:06;;;;;;;;;;;;;;;14.99;86.98;96731.34;5074369;28;20423;-81
2021/09/27 00:22:31;;;;;;;;;;;;;;;14.98;87.39;96734.22;5074194;28;19969;-81
2021/09/27 00:24:57;;;;;;;;;;;;;;;14.96;87.25;96731.00;5074227;28;19954;-81
2021/09/27 00:27:23;;;;;;;;;;;;;;;14.94;87.07;96735.72;5074681;28;19970;-81
2021/09/27 00:29:53;;;;;;;;;;;;;;;14.91;87.02;96734.38;5073847;28;19960;-81
2021/09/27 00:32:19;;;;;;;;;;;;;;;14.91;86.81;96739.66;5074561;28;20060;-81
2021/09/27 00:34:45;;;;;;;;;;;;;;;14.89;86.95;96728.53;5074115;28;19953;-81
2021/09/27 00:37:11;;;;;;;;;;;;;;;14.86;86.71;96731.63;5074084;28;19958;-81
2021/09/27 00:39:38;;;;;;;;;;;;;;;14.85;86.67;96724.75;5073768;28;19963;-81
2021/09/27 00:42:04;;;;;;;;;;;;;;;14.82;87.00;96726.03;5074165;28;20459;-81
2021/09/27 00:44:29;;;;;;;;;;;;;;;14.81;86.64;96728.91;5073927;28;19974;-81
2021/09/27 00:46:55;;;;;;;;;;;;;;;14.79;86.62;96728.34;5074204;28;19968;-81
2021/09/27 00:49:21;;;;;;;;;;;;;;;14.77;86.46;96731.22;5073549;28;20382;-81
2021/09/27 00:51:47;;;;;;;;;;;;;;;14.75;86.44;96728.00;5073492;28;19967;-82
2021/09/27 00:54:17;;;;;;;;;;;;;;;14.72;86.38;96723.22;5073867;28;19948;-81
2021/09/27 00:56:46;;;;;;;;;;;;;;;14.70;86.50;96725.28;5072651;28;19951;-81
2021/09/27 00:59:12;;;;;;;;;;;;;;;14.69;86.48;96722.88;5073843;28;20336;-79
2021/09/27 01:01:38;;;;;;;;;;;;;;;14.67;86.72;96711.75;5073699;28;19956;-79
2021/09/27 01:04:05;;;;;;;;;;;;;;;14.65;86.75;96714.63;5073700;28;19972;-80
2021/09/27 01:06:40;;;;;;;;;;;;;;;14.64;87.03;96720.97;5073483;28;19952;-81
2021/09/27 01:09:06;;;;;;;;;;;;;;;14.63;87.11;96715.91;5073779;28;19977;-80
2021/09/27 01:11:41;;;;;;;;;;;;;;;14.61;87.02;96710.84;5073703;28;20002;-80
2021/09/27 01:14:13;;;;;;;;;;;;;;;14.58;87.29;96712.13;5065337;28;19960;-83
2021/09/27 01:16:51;;;;;;;;;;;;;;;14.55;87.44;96707.34;5073581;28;19954;-81
2021/09/27 01:19:41;;;;;;;;;;;;;;;14.55;87.66;96709.13;5073334;28;19966;-81
2021/09/27 01:22:06;;;;;;;;;;;;;;;14.53;87.46;96703.28;5073716;28;19963;-81
2021/09/27 01:24:52;;;;;;;;;;;;;;;14.53;87.52;96698.00;5073476;28;19972;-81
2021/09/27 01:27:27;;;;;;;;;;;;;;;14.52;88.43;96701.69;5058875;28;19967;-82
2021/09/27 01:30:09;;;;;;;;;;;;;;;14.55;88.06;96699.44;5073403;28;19949;-82
2021/09/27 01:32:41;;;;;;;;;;;;;;;14.57;87.77;96700.00;5074019;28;20410;-80
2021/09/27 01:35:06;;;;;;;;;;;;;;;14.55;87.36;96699.44;5073501;28;20324;-81
2021/09/27 01:37:35;;;;;;;;;;;;;;;14.52;87.22;96699.06;5073687;28;19956;-81
2021/09/27 01:40:07;;;;;;;;;;;;;;;14.49;87.33;96702.97;5072203;28;20302;-82
2021/09/27 01:42:45;;;;;;;;;;;;;;;14.45;87.39;96693.94;5073565;28;19963;-81
2021/09/27 01:45:40;;;;;;;;;;;;;;;14.44;87.67;96694.94;5073428;28;19954;-80
2021/09/27 01:48:12;;;;;;;;;;;;;;;14.41;87.84;96692.81;5058738;28;19962;-80
2021/09/27 01:50:47;;;;;;;;;;;;;;;14.38;87.98;96687.97;5073036;28;19977;-80
2021/09/27 01:53:20;;;;;;;;;;;;;;;14.33;88.42;96680.78;5073773;28;19949;-81
2021/09/27 01:56:04;;;;;;;;;;;;;;;14.31;88.11;96682.06;5073623;28;19951;-82
2021/09/27 01:58:39;;;;;;;;;;;;;;;14.29;88.46;96682.28;5073206;28;20315;-81
2021/09/27 02:01:09;;;;;;;;;;;;;;;14.29;88.95;96690.19;5073856;28;19954;-80
2021/09/27 02:03:38;;;;;;;;;;;;;;;14.28;88.86;96690.44;5077235;28;19971;-81
2021/09/27 02:06:08;;;;;;;;;;;;;;;14.29;88.73;96698.13;5076827;28;19956;-80
2021/09/27 02:08:47;;;;;;;;;;;;;;;14.27;89.02;96697.53;5077112;28;19956;-81
2021/09/27 02:11:21;;;;;;;;;;;;;;;14.27;88.89;96699.38;5076700;28;20325;-80
2021/09/27 02:13:53;;;;;;;;;;;;;;;14.28;88.65;96700.97;5077171;28;19952;-79
2021/09/27 02:16:22;;;;;;;;;;;;;;;14.26;88.74;96701.22;5076645;28;19961;-80
2021/09/27 02:18:59;;;;;;;;;;;;;;;14.26;88.32;96695.97;5076603;28;19944;-80
2021/09/27 02:21:29;;;;;;;;;;;;;;;14.25;88.56;96696.97;5076834;28;19970;-79
2021/09/27 02:23:57;;;;;;;;;;;;;;;14.24;88.54;96692.75;5076581;28;19970;-80
2021/09/27 02:26:23;;;;;;;;;;;;;;;14.21;88.38;96696.66;5076548;28;19960;-80
2021/09/27 02:28:49;;;;;;;;;;;;;;;14.19;88.22;96690.00;5076470;28;19959;-80
2021/09/27 02:31:15;;;;;;;;;;;;;;;14.17;88.17;96689.44;5076656;28;19995;-80
2021/09/27 02:33:41;;;;;;;;;;;;;;;14.14;87.74;96684.63;5076171;28;19975;-81
2021/09/27 02:36:33;;;;;;;;;;;;;;;14.13;87.70;96683.03;5076409;28;19968;-81
2021/09/27 02:39:01;;;;;;;;;;;;;;;14.11;87.89;96693.81;5063894;28;20427;-81
2021/09/27 02:41:47;;;;;;;;;;;;;;;14.08;88.07;96693.50;5076179;28;19954;-80
2021/09/27 02:44:13;;;;;;;;;;;;;;;14.06;88.55;96691.06;5076012;28;19975;-84
2021/09/27 02:46:44;;;;;;;;;;;;;;;14.04;88.35;96695.00;5076235;28;19954;-81
2021/09/27 02:49:13;;;;;;;;;;;;;;;14.00;88.02;96695.44;5075872;28;20413;-83
2021/09/27 02:51:40;;;;;;;;;;;;;;;14.00;88.10;96692.00;5076386;28;19950;-81
2021/09/27 02:54:07;;;;;;;;;;;;;;;13.97;88.11;96698.56;5076052;28;19963;-81
2021/09/27 02:56:42;;;;;;;;;;;;;;;13.95;88.03;96703.25;5075994;28;20316;-84
2021/09/27 02:59:08;;;;;;;;;;;;;;;13.93;88.15;96704.53;5075748;28;19964;-83
2021/09/27 03:01:41;;;;;;;;;;;;;;;13.90;87.97;96702.34;5076124;28;19950;-84
2021/09/27 03:04:10;;;;;;;;;;;;;;;13.87;87.61;96708.88;5075891;28;19987;-84
2021/09/27 03:06:45;;;;;;;;;;;;;;;13.84;87.35;96713.81;5076038;28;19959;-82
2021/09/27 03:09:30;;;;;;;;;;;;;;;13.79;87.10;96712.66;5074396;28;19955;-82
2021/09/27 03:12:05;;;;;;;;;;;;;;;13.77;87.15;96716.56;5075548;28;19957;-82
2021/09/27 03:14:31;;;;;;;;;;;;;;;13.77;87.69;96721.84;5075028;28;19964;-84
2021/09/27 03:17:19;;;;;;;;;;;;;;;13.71;89.08;96713.06;5075082;28;19955;-83
2021/09/27 03:19:48;;;;;;;;;;;;;;;13.71;89.38;96720.97;5075247;28;19955;-84
2021/09/27 03:22:17;;;;;;;;;;;;;;;13.71;89.72;96704.31;5075253;28;19950;-84
2021/09/27 03:24:49;;;;;;;;;;;;;;;13.72;90.04;96705.94;5074070;28;19966;-84
2021/09/27 03:27:23;;;;;;;;;;;;;;;13.72;90.08;96712.00;5075290;28;19961;-82
2021/09/27 03:29:55;;;;;;;;;;;;;;;13.74;90.40;96706.50;5075316;28;20427;-82
2021/09/27 03:32:23;;;;;;;;;;;;;;;13.75;90.48;96711.56;5075220;28;19965;-82
2021/09/27 03:35:02;;;;;;;;;;;;;;;13.76;90.11;96710.50;5075684;28;19971;-82
2021/09/27 03:37:40;;;;;;;;;;;;;;;13.75;89.82;96693.09;5062316;28;19956;-82
2021/09/27 03:40:15;;;;;;;;;;;;;;;13.76;89.87;96701.81;5075706;28;19947;-83
2021/09/27 03:42:41;;;;;;;;;;;;;;;13.74;89.45;96703.88;5075389;28;19951;-82
2021/09/27 03:45:12;;;;;;;;;;;;;;;13.74;89.51;96709.94;5074922;28;19991;-81
2021/09/27 03:47:59;;;;;;;;;;;;;;;13.73;89.18;96699.63;5074879;28;20322;-80
2021/09/27 03:50:51;;;;;;;;;;;;;;;13.72;89.16;96692.75;5074830;28;20455;-84
2021/09/27 03:53:23;;;;;;;;;;;;;;;13.70;89.15;96692.97;5061722;28;19960;-83
2021/09/27 03:56:12;;;;;;;;;;;;;;;13.69;88.99;96698.47;5074961;28;20013;-83
2021/09/27 03:58:41;;;;;;;;;;;;;;;13.67;89.27;96701.38;5059705;28;19952;-82
2021/09/27 04:01:18;;;;;;;;;;;;;;;13.67;89.40;96697.91;5074600;28;19963;-81
2021/09/27 04:03:47;;;;;;;;;;;;;;;13.66;89.48;96706.84;5074597;28;19959;-82
2021/09/27 04:06:32;;;;;;;;;;;;;;;13.63;89.15;96707.31;5074433;28;19959;-81
2021/09/27 04:09:04;;;;;;;;;;;;;;;13.59;88.95;96688.53;5074495;28;19952;-81
2021/09/27 04:11:51;;;;;;;;;;;;;;;13.57;89.12;96685.34;5059467;28;19966;-81
2021/09/27 04:14:23;;;;;;;;;;;;;;;13.55;88.82;96685.56;5074343;28;19967;-81
2021/09/27 04:17:02;;;;;;;;;;;;;;;13.54;88.84;96683.97;5074889;28;19965;-82
2021/09/27 04:19:27;;;;;;;;;;;;;;;13.53;88.67;96684.19;5074090;28;19959;-82
2021/09/27 04:22:11;;;;;;;;;;;;;;;13.51;88.66;96688.88;5074609;28;19999;-82
2021/09/27 04:24:55;;;;;;;;;;;;;;;13.49;88.71;96685.69;5074205;28;19964;-82
2021/09/27 04:27:41;;;;;;;;;;;;;;;13.46;88.63;96689.59;5074078;28;19961;-82
2021/09/27 04:30:14;;;;;;;;;;;;;;;13.44;88.64;96688.19;5074195;28;19962;-82
2021/09/27 04:32:46;;;;;;;;;;;;;;;13.41;88.48;96692.09;5074163;28;19948;-82
2021/09/27 04:35:18;;;;;;;;;;;;;;;13.40;88.35;96687.88;5074401;28;19951;-81
2021/09/27 04:37:45;;;;;;;;;;;;;;;13.38;88.38;96692.56;5073836;28;20327;-82
2021/09/27 04:40:11;;;;;;;;;;;;;;;13.36;88.00;96687.50;5073961;28;19965;-81
2021/09/27 04:42:56;;;;;;;;;;;;;;;13.35;88.16;96682.47;5073690;28;20324;-82
2021/09/27 04:45:42;;;;;;;;;;;;;;;13.30;87.81;96685.78;5073552;28;19963;-81
2021/09/27 04:48:26;;;;;;;;;;;;;;;13.28;87.73;96695.72;5073331;28;19950;-78
2021/09/27 04:51:09;;;;;;;;;;;;;;;13.24;87.70;96691.16;5073449;28;20445;-80
2021/09/27 04:53:55;;;;;;;;;;;;;;;13.20;87.56;96686.31;5073027;28;20265;-79
2021/09/27 04:56:33;;;;;;;;;;;;;;;13.17;87.61;96693.91;5073625;28;19952;-80
2021/09/27 04:58:58;;;;;;;;;;;;;;;13.14;87.34;96696.97;5073921;28;19961;-80
2021/09/27 05:01:43;;;;;;;;;;;;;;;13.11;87.49;96700.06;5073565;28;20368;-79
2021/09/27 05:04:27;;;;;;;;;;;;;;;13.09;87.29;96702.91;5073371;28;19969;-79
2021/09/27 05:07:11;;;;;;;;;;;;;;;13.06;87.64;96711.28;5073616;28;19970;-80
2021/09/27 05:09:43;;;;;;;;;;;;;;;13.06;87.52;96708.66;5073837;28;20023;-80
2021/09/27 05:12:08;;;;;;;;;;;;;;;13.03;87.53;96709.09;5073932;28;19998;-80
2021/09/27 05:14:44;;;;;;;;;;;;;;;13.00;87.41;96709.56;5073528;28;19959;-79
2021/09/27 05:17:19;;;;;;;;;;;;;;;12.95;86.67;96698.88;5063055;28;19962;-79
2021/09/27 05:19:57;;;;;;;;;;;;;;;12.89;86.15;96695.34;5073243;28;20403;-79
2021/09/27 05:22:23;;;;;;;;;;;;;;;12.85;86.06;96699.47;5073503;28;19959;-79
2021/09/27 05:25:07;;;;;;;;;;;;;;;12.83;86.22;96695.44;5073575;28;19962;-79
2021/09/27 05:28:00;;;;;;;;;;;;;;;12.82;86.39;96705.16;5073778;28;19950;-79
2021/09/27 05:30:26;;;;;;;;;;;;;;;12.80;86.79;96712.47;5073345;28;19948;-79
2021/09/27 05:33:04;;;;;;;;;;;;;;;12.79;86.91;96716.16;5073930;28;19960;-79
2021/09/27 05:35:33;;;;;;;;;;;;;;;12.79;87.16;96714.31;5059227;28;20280;-79
2021/09/27 05:37:59;;;;;;;;;;;;;;;12.78;86.95;96711.91;5077637;28;19942;-79
2021/09/27 05:40:28;;;;;;;;;;;;;;;12.77;86.86;96713.75;5077364;28;19957;-79
2021/09/27 05:42:57;;;;;;;;;;;;;;;12.78;87.21;96711.91;5077462;28;19952;-78
2021/09/27 05:45:31;;;;;;;;;;;;;;;12.78;87.41;96717.97;5077474;28;19977;-80
2021/09/27 05:48:12;;;;;;;;;;;;;;;12.78;87.24;96704.81;5077481;28;19954;-81
2021/09/27 05:50:42;;;;;;;;;;;;;;;12.80;87.06;96708.00;5076257;28;19981;-80
2021/09/27 05:53:14;;;;;;;;;;;;;;;13.06;86.99;96706.03;5068002;28;19963;-80
2021/09/27 05:55:47;;;;;;;;;;;;;;;13.54;86.17;96712.13;5077139;28;19950;-80
2021/09/27 05:58:33;;;;;;;;;;;;;;;14.04;84.39;96711.59;5077035;28;19958;-80
2021/09/27 06:01:05;;;;;;;;;;;;;;;14.52;82.73;96707.78;5076816;28;19960;-80
2021/09/27 06:03:49;;;;;;;;;;;;;;;14.91;81.20;96709.78;5064023;28;20351;-79
2021/09/27 06:06:22;;;;;;;;;;;;;;;15.21;80.15;96710.28;5061802;28;20304;-80
2021/09/27 06:09:04;;;;;;;;;;;;;;;15.49;79.19;96716.50;5076769;28;19953;-80
2021/09/27 06:11:38;;;;;;;;;;;;;;;15.75;78.38;96719.56;5076745;28;19956;-80
2021/09/27 06:14:04;;;;;;;;;;;;;;;15.95;77.86;96716.38;5077185;28;19955;-80
2021/09/27 06:16:33;;;;;;;;;;;;;;;16.05;77.24;96716.50;5076750;28;19966;-80
2021/09/27 06:19:17;;;;;;;;;;;;;;;16.11;76.73;96707.59;5076764;28;19942;-79
2021/09/27 06:22:01;;;;;;;;;;;;;;;16.20;76.39;96719.31;5076552;28;20328;-79
2021/09/27 06:24:30;;;;;;;;;;;;;;;16.28;76.00;96710.16;5076603;28;19967;-79
2021/09/27 06:27:00;;;;;;;;;;;;;;;16.30;76.07;96713.34;5076716;28;19958;-80
2021/09/27 06:29:39;;;;;;;;;;;;;;;16.20;75.95;96713.25;5076446;28;20402;-79
2021/09/27 06:32:09;;;;;;;;;;;;;;;15.97;76.14;96716.94;5076566;28;19980;-80
2021/09/27 06:34:50;;;;;;;;;;;;;;;15.70;77.22;96708.88;5077400;28;19960;-80
2021/09/27 06:37:17;;;;;;;;;;;;;;;15.57;78.52;96708.16;5076543;28;19956;-79
2021/09/27 06:39:43;;;;;;;;;;;;;;;15.72;78.33;96706.81;5076365;28;19955;-79
2021/09/27 06:42:09;;;;;;;;;;;;;;;15.88;78.14;96705.19;5076305;28;19957;-80
2021/09/27 06:44:35;;;;;;;;;;;;;;;16.07;77.76;96705.69;5076023;28;19972;-80
2021/09/27 06:47:01;;;;;;;;;;;;;;;16.14;77.78;96708.94;5076339;28;19958;-80
2021/09/27 06:49:27;;;;;;;;;;;;;;;16.22;77.10;96704.00;5074942;28;19956;-80
2021/09/27 06:51:55;;;;;;;;;;;;;;;16.31;76.96;96704.34;5076649;28;19956;-81
2021/09/27 06:54:22;;;;;;;;;;;;;;;16.30;76.07;96710.72;5076012;28;19979;-81
2021/09/27 06:56:48;;;;;;;;;;;;;;;16.21;76.40;96710.34;5075709;28;20434;-81
2021/09/27 06:59:15;;;;;;;;;;;;;;;16.25;76.42;96702.69;5076020;28;19953;-81
2021/09/27 07:01:41;;;;;;;;;;;;;;;16.28;76.84;96702.22;5076009;28;19950;-81
2021/09/27 07:04:07;;;;;;;;;;;;;;;16.41;76.13;96698.38;5075911;28;20002;-81
2021/09/27 07:06:33;;;;;;;;;;;;;;;16.47;75.55;96701.91;5075841;28;20005;-82
2021/09/27 07:08:59;;;;;;;;;;;;;;;16.44;75.05;96690.75;5075691;28;20417;-81
2021/09/27 07:11:25;;;;;;;;;;;;;;;16.49;76.00;96692.66;5075717;28;19963;-81
2021/09/27 07:13:51;;;;;;;;;;;;;;;16.60;75.23;96694.34;5076086;28;20446;-81
2021/09/27 07:16:17;;;;;;;;;;;;;;;16.75;76.11;96693.69;5075591;28;20057;-81
2021/09/27 07:18:42;;;;;;;;;;;;;;;16.95;76.35;96692.31;5075483;28;20046;-81
2021/09/27 07:21:09;;;;;;;;;;;;;;;17.14;74.71;96701.47;5075403;28;19970;-81
2021/09/27 07:23:38;;;;;;;;;;;;;;;17.24;72.54;96687.50;5073831;28;19958;-81
2021/09/27 07:26:15;;;;;;;;;;;;;;;17.30;73.76;96685.66;5075842;28;19981;-80
2021/09/27 07:28:41;;;;;;;;;;;;;;;17.46;74.55;96684.72;5075458;28;19964;-81
2021/09/27 07:31:08;;;;;;;;;;;;;;;17.58;71.84;96685.34;5075974;28;20300;-81
2021/09/27 07:33:34;;;;;;;;;;;;;;;17.63;71.96;96690.66;5074034;28;20323;-82
2021/09/27 07:36:00;;;;;;;;;;;;;;;17.75;72.15;96693.13;5075445;28;19965;-81
2021/09/27 07:38:27;;;;;;;;;;;;;;;17.72;70.36;96696.25;5075032;28;20317;-81
2021/09/27 07:40:53;;;;;;;;;;;;;;;17.62;70.89;96691.72;5075276;28;19969;-81
2021/09/27 07:43:19;;;;;;;;;;;;;;;17.63;71.79;96700.47;5075490;28;19961;-81
2021/09/27 07:45:45;;;;;;;;;;;;;;;17.69;71.25;96693.34;5074947;28;19988;-81
2021/09/27 07:48:16;;;;;;;;;;;;;;;17.64;71.08;96699.44;5075055;28;19960;-81
2021/09/27 07:50:43;;;;;;;;;;;;;;;17.69;72.13;96702.09;5074704;28;19983;-81
2021/09/27 07:53:10;;;;;;;;;;;;;;;17.83;72.80;96700.63;5073425;28;19964;-81
2021/09/27 07:55:36;;;;;;;;;;;;;;;17.94;72.09;96693.50;5075071;28;19962;-81
2021/09/27 07:58:02;;;;;;;;;;;;;;;17.97;72.68;96700.13;5074794;28;19947;-81
2021/09/27 08:00:28;;;;;;;;;;;;;;;18.00;72.16;96696.97;5074648;28;19952;-81
2021/09/27 08:02:54;;;;;;;;;;;;;;;18.04;72.16;96690.09;5074699;28;20491;-82
2021/09/27 08:05:23;;;;;;;;;;;;;;;18.04;72.54;96696.19;5074360;28;19966;-82
2021/09/27 08:07:49;;;;;;;;;;;;;;;18.13;71.56;96698.34;5074546;28;20409;-82
2021/09/27 08:10:16;;;;;;;;;;;;;;;18.23;71.94;96703.72;5074780;28;19955;-81
2021/09/27 08:12:42;;;;;;;;;;;;;;;18.34;71.51;96707.97;5074753;28;19953;-81
2021/09/27 08:15:12;;;;;;;;;;;;;;;18.40;70.56;96701.63;5074461;28;19953;-81
2021/09/27 08:17:39;;;;;;;;;;;;;;;18.48;71.35;96705.66;5074533;28;19950;-81
2021/09/27 08:20:07;;;;;;;;;;;;;;;18.56;70.95;96699.00;5074089;28;19957;-81
2021/09/27 08:22:33;;;;;;;;;;;;;;;18.65;69.41;96694.78;5073998;28;19957;-81
2021/09/27 08:24:59;;;;;;;;;;;;;;;18.75;71.14;96697.47;5074700;28;19969;-81
2021/09/27 08:27:25;;;;;;;;;;;;;;;18.84;70.08;96695.91;5074100;28;20403;-81
2021/09/27 08:29:50;;;;;;;;;;;;;;;18.90;70.51;96704.69;5074186;28;20003;-81
2021/09/27 08:32:16;;;;;;;;;;;;;;;18.99;69.47;96694.31;5074061;28;19957;-81
2021/09/27 08:34:43;;;;;;;;;;;;;;;18.90;68.14;96696.72;5073984;28;20318;-81
2021/09/27 08:37:09;;;;;;;;;;;;;;;18.92;68.33;96696.41;5063820;28;19965;-81
2021/09/27 08:39:36;;;;;;;;;;;;;;;18.97;69.03;96693.78;5074119;28;19951;-81
2021/09/27 08:42:04;;;;;;;;;;;;;;;19.00;68.58;96704.69;5073893;28;19965;-81
2021/09/27 08:44:43;;;;;;;;;;;;;;;19.00;68.62;96694.06;5074007;28;19965;-81
2021/09/27 08:47:14;;;;;;;;;;;;;;;18.91;67.73;96685.00;5073810;28;19964;-81
2021/09/27 08:49:43;;;;;;;;;;;;;;;18.90;69.86;96698.53;5074107;28;20340;-81
2021/09/27 08:52:12;;;;;;;;;;;;;;;18.89;67.11;96684.47;5074198;28;20319;-81
2021/09/27 08:54:38;;;;;;;;;;;;;;;18.86;68.82;96693.78;5073748;28;19957;-81
2021/09/27 08:57:09;;;;;;;;;;;;;;;18.81;68.04;96685.00;5073785;28;19955;-81
2021/09/27 08:59:47;;;;;;;;;;;;;;;18.80;68.74;96691.38;5073615;28;20318;-81
2021/09/27 09:02:32;;;;;;;;;;;;;;;18.81;68.63;96690.31;5074034;28;19949;-81
2021/09/27 09:05:07;;;;;;;;;;;;;;;18.83;70.24;96686.31;5074049;28;19960;-81
2021/09/27 09:07:36;;;;;;;;;;;;;;;18.84;67.81;96687.13;5073518;28;20318;-81
2021/09/27 09:10:05;;;;;;;;;;;;;;;18.76;67.49;96680.44;5073759;28;19954;-81
2021/09/27 09:12:33;;;;;;;;;;;;;;;18.76;69.79;96683.09;5073011;28;19964;-81
2021/09/27 09:15:06;;;;;;;;;;;;;;;18.85;68.68;96678.09;5073414;28;19959;-81
2021/09/27 09:17:37;;;;;;;;;;;;;;;18.87;69.26;96681.28;5073658;28;19952;-81
2021/09/27 09:20:10;;;;;;;;;;;;;;;18.90;68.82;96682.59;5073416;28;19950;-81
2021/09/27 09:22:37;;;;;;;;;;;;;;;18.93;68.84;96682.88;5072342;28;19959;-81
2021/09/27 09:25:07;;;;;;;;;;;;;;;18.96;69.44;96689.50;5073326;28;19965;-81
2021/09/27 09:27:33;;;;;;;;;;;;;;;18.94;66.86;96678.34;5074100;28;19974;-83
2021/09/27 09:29:59;;;;;;;;;;;;;;;18.89;68.99;96679.16;5072243;28;19948;-81
2021/09/27 09:32:28;;;;;;;;;;;;;;;18.94;68.58;96671.19;5073552;28;19964;-81
2021/09/27 09:35:12;;;;;;;;;;;;;;;19.01;69.72;96674.38;5073392;28;19963;-81
2021/09/27 09:37:44;;;;;;;;;;;;;;;19.05;70.01;96666.69;5073503;28;19946;-81
2021/09/27 09:40:27;;;;;;;;;;;;;;;19.00;67.98;96669.31;5073551;28;19953;-81
2021/09/27 09:42:55;;;;;;;;;;;;;;;18.95;68.50;96666.69;5073601;28;19953;-81
2021/09/27 09:45:23;;;;;;;;;;;;;;;19.01;70.00;96665.63;5073133;28;19975;-81
2021/09/27 09:47:48;;;;;;;;;;;;;;;19.09;69.25;96661.59;5060012;28;20314;-82
2021/09/27 09:50:27;;;;;;;;;;;;;;;19.12;66.61;96658.44;5073196;28;19993;-83
2021/09/27 09:52:54;;;;;;;;;;;;;;;19.14;68.43;96659.75;5065217;28;19960;-81
2021/09/27 09:55:31;;;;;;;;;;;;;;;19.13;66.29;96657.34;5073351;28;20008;-81
2021/09/27 09:58:02;;;;;;;;;;;;;;;19.13;68.96;96668.81;5073040;28;20417;-81
2021/09/27 10:00:41;;;;;;;;;;;;;;;19.17;69.44;96669.03;5073082;28;20318;-81
2021/09/27 10:03:09;;;;;;;;;;;;;;;19.17;67.96;96667.22;5073094;28;19958;-81
2021/09/27 10:05:48;;;;;;;;;;;;;;;19.20;67.15;96661.34;5073662;28;19983;-81
2021/09/27 10:08:16;;;;;;;;;;;;;;;19.22;68.08;96664.53;5072950;28;20447;-81
2021/09/27 10:10:43;;;;;;;;;;;;;;;19.30;67.43;96657.88;5073046;28;20406;-82
2021/09/27 10:13:28;;;;;;;;;;;;;;;19.38;67.50;96661.84;5072864;28;19954;-82
2021/09/27 10:15:54;;;;;;;;;;;;;;;19.47;68.95;96662.91;5073117;28;19957;-81
2021/09/27 10:18:34;;;;;;;;;;;;;;;19.57;67.67;96662.88;5073464;28;20414;-81
2021/09/27 10:21:00;;;;;;;;;;;;;;;19.65;67.18;96658.84;5072800;28;19969;-81
2021/09/27 10:23:35;;;;;;;;;;;;;;;19.72;65.61;96653.28;5075527;28;19959;-81
2021/09/27 10:26:24;;;;;;;;;;;;;;;19.81;67.44;96663.09;5076723;28;19969;-81
2021/09/27 10:28:51;;;;;;;;;;;;;;;19.94;65.65;96656.38;5076759;28;20395;-80
2021/09/27 10:31:18;;;;;;;;;;;;;;;19.96;63.21;96645.47;5076626;28;19958;-80
2021/09/27 10:33:50;;;;;;;;;;;;;;;19.85;64.45;96644.72;5076184;28;19951;-80
2021/09/27 10:36:18;;;;;;;;;;;;;;;19.72;65.15;96654.09;5076604;28;20397;-81
2021/09/27 10:38:46;;;;;;;;;;;;;;;19.62;61.78;96638.13;5076139;28;19956;-81
2021/09/27 10:41:21;;;;;;;;;;;;;;;19.53;64.76;96661.81;5076228;28;20420;-81
2021/09/27 10:43:49;;;;;;;;;;;;;;;19.56;65.18;96663.16;5076083;28;20318;-81
2021/09/27 10:46:16;;;;;;;;;;;;;;;19.61;64.85;96652.47;5059060;28;19968;-81
2021/09/27 10:48:46;;;;;;;;;;;;;;;19.67;64.21;96641.56;5076131;28;19960;-82
2021/09/27 10:51:13;;;;;;;;;;;;;;;19.70;65.18;96644.72;5076040;28;20357;-81
2021/09/27 10:53:50;;;;;;;;;;;;;;;19.71;63.64;96639.19;5076269;28;19961;-81
2021/09/27 10:56:48;;;;;;;;;;;;;;;19.71;65.55;96636.50;5074482;28;19952;-82
2021/09/27 10:59:25;;;;;;;;;;;;;;;19.62;65.00;96641.56;5064766;28;19959;-81
2021/09/27 11:01:52;;;;;;;;;;;;;;;19.56;64.67;96637.34;5075966;28;20295;-81
2021/09/27 11:04:18;;;;;;;;;;;;;;;19.52;64.17;96627.50;5075817;28;19958;-81
2021/09/27 11:06:55;;;;;;;;;;;;;;;19.55;65.53;96645.56;5075812;28;20459;-82
2021/09/27 11:09:36;;;;;;;;;;;;;;;19.57;66.24;96643.44;5066521;28;20022;-81
2021/09/27 11:12:06;;;;;;;;;;;;;;;19.63;63.49;96624.56;5076227;28;19952;-81
2021/09/27 11:14:38;;;;;;;;;;;;;;;19.79;64.36;96621.88;5076010;28;19955;-81
2021/09/27 11:17:03;;;;;;;;;;;;;;;19.92;63.31;96617.81;5075671;28;19954;-81
2021/09/27 11:19:37;;;;;;;;;;;;;;;20.07;63.19;96609.75;5075566;28;20326;-81
2021/09/27 11:22:21;;;;;;;;;;;;;;;20.21;63.63;96610.72;5075627;28;19958;-81
2021/09/27 11:24:49;;;;;;;;;;;;;;;20.35;62.88;96608.25;5075652;28;19959;-81
2021/09/27 11:27:15;;;;;;;;;;;;;;;20.46;60.97;96598.31;5075405;28;19963;-81
2021/09/27 11:29:46;;;;;;;;;;;;;;;20.61;60.39;96592.91;5075374;28;20045;-81
2021/09/27 11:32:31;;;;;;;;;;;;;;;20.72;58.73;96580.28;5075347;28;20326;-81
2021/09/27 11:35:09;;;;;;;;;;;;;;;20.77;61.60;96606.13;5074831;28;19956;-81
2021/09/27 11:38:02;;;;;;;;;;;;;;;20.83;60.48;96584.47;5075481;28;20322;-81
2021/09/27 11:40:33;;;;;;;;;;;;;;;20.90;61.64;96608.13;5063136;28;20403;-81
2021/09/27 11:43:22;;;;;;;;;;;;;;;20.92;57.65;96566.00;5075532;28;19960;-81
2021/09/27 11:45:52;;;;;;;;;;;;;;;20.90;57.63;96565.50;5064980;28;19976;-81
2021/09/27 11:48:19;;;;;;;;;;;;;;;20.83;57.89;96579.16;5063006;28;19963;-81
2021/09/27 11:50:50;;;;;;;;;;;;;;;20.76;56.77;96565.34;5074873;28;19987;-80
2021/09/27 11:53:34;;;;;;;;;;;;;;;20.74;59.41;96583.47;5061326;28;19960;-80
2021/09/27 11:56:06;;;;;;;;;;;;;;;20.74;57.43;96564.03;5075161;28;19963;-80
2021/09/27 11:58:35;;;;;;;;;;;;;;;20.88;59.16;96584.41;5074853;28;20307;-80
2021/09/27 12:01:04;;;;;;;;;;;;;;;21.06;56.41;96566.13;5074963;28;20310;-80
2021/09/27 12:03:49;;;;;;;;;;;;;;;21.17;57.88;96575.63;5074814;28;20321;-80
2021/09/27 12:06:23;;;;;;;;;;;;;;;21.24;55.14;96545.94;5074622;28;19976;-80
2021/09/27 12:09:00;;;;;;;;;;;;;;;21.25;53.45;96534.19;5074493;28;20434;-81
2021/09/27 12:11:26;;;;;;;;;;;;;;;21.18;54.67;96545.19;5074490;28;19963;-80
2021/09/27 12:13:55;;;;;;;;;;;;;;;21.14;56.34;96559.38;5074549;28;20001;-80
2021/09/27 12:16:27;;;;;;;;;;;;;;;21.08;53.24;96545.28;5074544;28;20433;-80
2021/09/27 12:18:59;;;;;;;;;;;;;;;21.01;57.76;96587.50;5074806;28;19953;-80
2021/09/27 12:21:28;;;;;;;;;;;;;;;20.92;53.58;96552.66;5074352;28;19963;-80
2021/09/27 12:23:57;;;;;;;;;;;;;;;20.81;56.50;96575.16;5074404;28;19960;-80
2021/09/27 12:26:23;;;;;;;;;;;;;;;20.71;54.93;96552.06;5074165;28;20442;-80
2021/09/27 12:28:58;;;;;;;;;;;;;;;20.65;56.00;96566.50;5074141;28;19974;-81
2021/09/27 12:31:24;;;;;;;;;;;;;;;20.60;55.36;96556.69;5074299;28;19963;-80
2021/09/27 12:33:50;;;;;;;;;;;;;;;20.60;56.74;96567.34;5074258;28;19953;-79
2021/09/27 12:36:19;;;;;;;;;;;;;;;20.64;55.37;96559.56;5074137;28;20469;-79
2021/09/27 12:38:49;;;;;;;;;;;;;;;20.71;57.45;96581.38;5073797;28;20393;-79
2021/09/27 12:41:15;;;;;;;;;;;;;;;20.81;56.83;96575.16;5074622;28;20331;-82
2021/09/27 12:43:41;;;;;;;;;;;;;;;20.96;57.80;96575.03;5073902;28;19960;-83
2021/09/27 12:46:28;;;;;;;;;;;;;;;21.10;56.92;96567.16;5073000;28;20421;-82
2021/09/27 12:48:56;;;;;;;;;;;;;;;21.23;55.25;96552.34;5073907;28;19971;-81
2021/09/27 12:51:26;;;;;;;;;;;;;;;21.26;55.07;96549.91;5074203;28;19979;-80
2021/09/27 12:53:58;;;;;;;;;;;;;;;21.26;55.10;96552.56;5074545;28;20433;-81
2021/09/27 12:56:24;;;;;;;;;;;;;;;21.25;55.99;96572.34;5073729;28;19949;-82
2021/09/27 12:59:00;;;;;;;;;;;;;;;21.25;56.59;96572.34;5073902;28;20425;-82
2021/09/27 13:01:27;;;;;;;;;;;;;;;21.25;56.52;96580.34;5074126;28;19972;-82
2021/09/27 13:04:04;;;;;;;;;;;;;;;21.23;55.52;96566.50;5074025;28;19956;-82
2021/09/27 13:06:30;;;;;;;;;;;;;;;21.21;56.31;96560.66;5073779;28;19973;-81
2021/09/27 13:09:22;;;;;;;;;;;;;;;21.16;55.05;96563.34;5073481;28;19961;-81
2021/09/27 13:11:53;;;;;;;;;;;;;;;21.15;55.72;96567.09;5072096;28;19960;-77